sensor_id;sensor_type;location;lat;lon;timestamp;P1;durP1;ratioP1;P2;durP2;ratioP2
26512;SDS011;14186;53.822;10.152;2024-02-26T00:03:41;12.55;;;6.07;;
26512;SDS011;14186;53.822;10.152;2024-02-26T00:08:41;8.65;;;4.63;;
26512;SDS011;14186;53.822;10.152;2024-02-26T00:13:43;12.80;;;6.60;;
26512;SDS011;14186;53.822;10.152;2024-02-26T00:18:43;11.85;;;5.20;;
26512;SDS011;14186;53.822;10.152;2024-02-26T00:23:43;10.30;;;5.30;;
26512;SDS011;14186;53.822;10.152;2024-02-26T00:28:45;10.65;;;5.00;;
26512;SDS011;14186;53.822;10.152;2024-02-26T00:33:45;10.55;;;5.13;;
26512;SDS011;14186;53.822;10.152;2024-02-26T00:38:45;10.10;;;5.28;;
26512;SDS011;14186;53.822;10.152;2024-02-26T00:43:47;12.25;;;6.20;;
26512;SDS011;14186;53.822;10.152;2024-02-26T00:48:47;9.80;;;5.25;;
26512;SDS011;14186;53.822;10.152;2024-02-26T00:53:47;8.95;;;4.40;;
26512;SDS011;14186;53.822;10.152;2024-02-26T00:58:48;12.30;;;5.25;;
26512;SDS011;14186;53.822;10.152;2024-02-26T01:03:49;10.57;;;5.35;;
26512;SDS011;14186;53.822;10.152;2024-02-26T01:08:49;9.73;;;4.70;;
26512;SDS011;14186;53.822;10.152;2024-02-26T01:13:50;11.13;;;5.28;;
26512;SDS011;14186;53.822;10.152;2024-02-26T01:18:51;12.60;;;5.28;;
26512;SDS011;14186;53.822;10.152;2024-02-26T01:23:51;11.40;;;5.10;;
26512;SDS011;14186;53.822;10.152;2024-02-26T01:28:52;8.18;;;4.22;;
26512;SDS011;14186;53.822;10.152;2024-02-26T01:33:53;9.48;;;4.97;;
26512;SDS011;14186;53.822;10.152;2024-02-26T01:38:53;9.75;;;4.07;;
26512;SDS011;14186;53.822;10.152;2024-02-26T01:43:54;8.95;;;4.30;;
26512;SDS011;14186;53.822;10.152;2024-02-26T01:48:55;10.45;;;5.35;;
26512;SDS011;14186;53.822;10.152;2024-02-26T01:53:55;8.35;;;4.00;;
26512;SDS011;14186;53.822;10.152;2024-02-26T01:58:56;9.32;;;4.28;;
26512;SDS011;14186;53.822;10.152;2024-02-26T02:03:57;17.77;;;5.65;;
26512;SDS011;14186;53.822;10.152;2024-02-26T02:08:58;15.85;;;5.45;;
26512;SDS011;14186;53.822;10.152;2024-02-26T02:13:59;14.10;;;5.40;;
26512;SDS011;14186;53.822;10.152;2024-02-26T02:18:59;13.75;;;5.68;;
26512;SDS011;14186;53.822;10.152;2024-02-26T02:24:01;14.02;;;5.57;;
26512;SDS011;14186;53.822;10.152;2024-02-26T02:29:02;21.98;;;5.75;;
26512;SDS011;14186;53.822;10.152;2024-02-26T02:34:02;12.18;;;5.47;;
26512;SDS011;14186;53.822;10.152;2024-02-26T02:39:04;12.88;;;5.22;;
26512;SDS011;14186;53.822;10.152;2024-02-26T02:44:04;10.43;;;5.25;;
26512;SDS011;14186;53.822;10.152;2024-02-26T02:49:07;10.55;;;5.05;;
26512;SDS011;14186;53.822;10.152;2024-02-26T02:54:09;12.13;;;5.75;;
26512;SDS011;14186;53.822;10.152;2024-02-26T02:59:09;11.80;;;5.78;;
26512;SDS011;14186;53.822;10.152;2024-02-26T03:04:10;12.13;;;5.82;;
26512;SDS011;14186;53.822;10.152;2024-02-26T03:09:11;11.32;;;5.78;;
26512;SDS011;14186;53.822;10.152;2024-02-26T03:14:11;9.93;;;4.93;;
26512;SDS011;14186;53.822;10.152;2024-02-26T03:19:13;10.38;;;4.80;;
26512;SDS011;14186;53.822;10.152;2024-02-26T03:24:15;13.48;;;5.50;;
26512;SDS011;14186;53.822;10.152;2024-02-26T03:29:15;9.00;;;4.97;;
26512;SDS011;14186;53.822;10.152;2024-02-26T03:34:15;16.75;;;5.50;;
26512;SDS011;14186;53.822;10.152;2024-02-26T03:39:17;10.57;;;4.40;;
26512;SDS011;14186;53.822;10.152;2024-02-26T03:44:17;9.70;;;4.55;;
26512;SDS011;14186;53.822;10.152;2024-02-26T03:49:17;11.60;;;5.10;;
26512;SDS011;14186;53.822;10.152;2024-02-26T03:54:19;11.35;;;5.07;;
26512;SDS011;14186;53.822;10.152;2024-02-26T03:59:19;12.35;;;5.20;;
26512;SDS011;14186;53.822;10.152;2024-02-26T04:04:19;10.23;;;4.78;;
26512;SDS011;14186;53.822;10.152;2024-02-26T04:09:21;10.95;;;4.40;;
26512;SDS011;14186;53.822;10.152;2024-02-26T04:14:21;13.45;;;5.43;;
26512;SDS011;14186;53.822;10.152;2024-02-26T04:19:21;13.05;;;5.63;;
26512;SDS011;14186;53.822;10.152;2024-02-26T04:24:23;11.45;;;5.30;;
26512;SDS011;14186;53.822;10.152;2024-02-26T04:29:23;15.25;;;6.80;;
26512;SDS011;14186;53.822;10.152;2024-02-26T04:34:23;15.02;;;5.72;;
26512;SDS011;14186;53.822;10.152;2024-02-26T04:39:25;16.38;;;6.78;;
26512;SDS011;14186;53.822;10.152;2024-02-26T04:44:25;28.58;;;7.40;;
26512;SDS011;14186;53.822;10.152;2024-02-26T04:49:25;22.45;;;7.20;;
26512;SDS011;14186;53.822;10.152;2024-02-26T04:54:27;18.88;;;7.07;;
26512;SDS011;14186;53.822;10.152;2024-02-26T04:59:27;14.82;;;6.65;;
26512;SDS011;14186;53.822;10.152;2024-02-26T05:04:27;14.73;;;6.43;;
26512;SDS011;14186;53.822;10.152;2024-02-26T05:09:29;19.27;;;7.88;;
26512;SDS011;14186;53.822;10.152;2024-02-26T05:14:29;17.30;;;8.00;;
26512;SDS011;14186;53.822;10.152;2024-02-26T05:19:29;19.00;;;7.05;;
26512;SDS011;14186;53.822;10.152;2024-02-26T05:24:31;20.30;;;7.57;;
26512;SDS011;14186;53.822;10.152;2024-02-26T05:29:31;29.58;;;8.85;;
26512;SDS011;14186;53.822;10.152;2024-02-26T05:34:31;22.17;;;8.18;;
26512;SDS011;14186;53.822;10.152;2024-02-26T05:39:32;30.88;;;8.82;;
26512;SDS011;14186;53.822;10.152;2024-02-26T05:44:33;41.38;;;9.68;;
26512;SDS011;14186;53.822;10.152;2024-02-26T05:49:33;41.22;;;10.70;;
26512;SDS011;14186;53.822;10.152;2024-02-26T05:54:34;51.10;;;15.43;;
26512;SDS011;14186;53.822;10.152;2024-02-26T05:59:35;55.55;;;18.67;;
26512;SDS011;14186;53.822;10.152;2024-02-26T06:04:35;30.02;;;9.57;;
26512;SDS011;14186;53.822;10.152;2024-02-26T06:09:37;31.17;;;8.40;;
26512;SDS011;14186;53.822;10.152;2024-02-26T06:14:37;35.15;;;9.35;;
26512;SDS011;14186;53.822;10.152;2024-02-26T06:19:37;33.67;;;10.20;;
26512;SDS011;14186;53.822;10.152;2024-02-26T06:24:39;28.55;;;8.05;;
26512;SDS011;14186;53.822;10.152;2024-02-26T06:29:39;38.38;;;8.48;;
26512;SDS011;14186;53.822;10.152;2024-02-26T06:34:39;37.97;;;8.85;;
26512;SDS011;14186;53.822;10.152;2024-02-26T06:39:40;25.05;;;7.20;;
26512;SDS011;14186;53.822;10.152;2024-02-26T06:44:41;28.05;;;8.00;;
26512;SDS011;14186;53.822;10.152;2024-02-26T06:49:41;32.30;;;8.18;;
26512;SDS011;14186;53.822;10.152;2024-02-26T06:54:43;21.30;;;7.25;;
26512;SDS011;14186;53.822;10.152;2024-02-26T06:59:43;23.55;;;7.28;;
26512;SDS011;14186;53.822;10.152;2024-02-26T07:04:43;36.40;;;8.60;;
26512;SDS011;14186;53.822;10.152;2024-02-26T07:09:45;28.75;;;6.75;;
26512;SDS011;14186;53.822;10.152;2024-02-26T07:14:45;26.67;;;6.50;;
26512;SDS011;14186;53.822;10.152;2024-02-26T07:19:45;21.02;;;7.15;;
26512;SDS011;14186;53.822;10.152;2024-02-26T07:24:47;35.92;;;7.10;;
26512;SDS011;14186;53.822;10.152;2024-02-26T07:29:47;21.67;;;6.78;;
26512;SDS011;14186;53.822;10.152;2024-02-26T07:34:47;23.40;;;7.20;;
26512;SDS011;14186;53.822;10.152;2024-02-26T07:39:49;25.13;;;7.63;;
26512;SDS011;14186;53.822;10.152;2024-02-26T07:44:49;20.63;;;7.38;;
26512;SDS011;14186;53.822;10.152;2024-02-26T07:49:49;21.75;;;6.80;;
26512;SDS011;14186;53.822;10.152;2024-02-26T07:54:51;33.17;;;7.72;;
26512;SDS011;14186;53.822;10.152;2024-02-26T07:59:51;24.80;;;6.97;;
26512;SDS011;14186;53.822;10.152;2024-02-26T08:04:51;31.85;;;8.05;;
26512;SDS011;14186;53.822;10.152;2024-02-26T08:09:53;24.50;;;7.35;;
26512;SDS011;14186;53.822;10.152;2024-02-26T08:14:53;22.50;;;7.10;;
26512;SDS011;14186;53.822;10.152;2024-02-26T08:19:53;29.75;;;8.27;;
26512;SDS011;14186;53.822;10.152;2024-02-26T08:24:55;20.73;;;6.72;;
26512;SDS011;14186;53.822;10.152;2024-02-26T08:29:55;22.50;;;7.93;;
26512;SDS011;14186;53.822;10.152;2024-02-26T08:34:55;22.00;;;6.50;;
26512;SDS011;14186;53.822;10.152;2024-02-26T08:39:57;21.17;;;7.68;;
26512;SDS011;14186;53.822;10.152;2024-02-26T08:44:57;25.48;;;8.90;;
26512;SDS011;14186;53.822;10.152;2024-02-26T08:49:57;23.95;;;7.22;;
26512;SDS011;14186;53.822;10.152;2024-02-26T08:54:58;23.83;;;9.13;;
26512;SDS011;14186;53.822;10.152;2024-02-26T08:59:59;25.00;;;8.60;;
26512;SDS011;14186;53.822;10.152;2024-02-26T09:04:59;22.45;;;8.60;;
26512;SDS011;14186;53.822;10.152;2024-02-26T09:10:00;23.17;;;8.75;;
26512;SDS011;14186;53.822;10.152;2024-02-26T09:15:01;24.50;;;8.45;;
26512;SDS011;14186;53.822;10.152;2024-02-26T09:20:01;25.88;;;8.85;;
26512;SDS011;14186;53.822;10.152;2024-02-26T09:25:03;26.40;;;9.38;;
26512;SDS011;14186;53.822;10.152;2024-02-26T09:30:04;29.00;;;10.07;;
26512;SDS011;14186;53.822;10.152;2024-02-26T09:35:05;24.02;;;8.90;;
26512;SDS011;14186;53.822;10.152;2024-02-26T09:40:07;22.13;;;9.07;;
26512;SDS011;14186;53.822;10.152;2024-02-26T09:45:07;22.00;;;8.98;;
26512;SDS011;14186;53.822;10.152;2024-02-26T09:50:10;21.52;;;9.27;;
26512;SDS011;14186;53.822;10.152;2024-02-26T09:55:12;20.00;;;8.75;;
26512;SDS011;14186;53.822;10.152;2024-02-26T10:00:14;19.38;;;8.77;;
26512;SDS011;14186;53.822;10.152;2024-02-26T10:05:16;16.38;;;7.35;;
26512;SDS011;14186;53.822;10.152;2024-02-26T10:10:18;14.25;;;6.57;;
26512;SDS011;14186;53.822;10.152;2024-02-26T10:15:18;21.10;;;8.77;;
26512;SDS011;14186;53.822;10.152;2024-02-26T10:20:19;17.30;;;7.30;;
26512;SDS011;14186;53.822;10.152;2024-02-26T10:25:21;18.23;;;7.32;;
26512;SDS011;14186;53.822;10.152;2024-02-26T10:30:21;23.35;;;8.35;;
26512;SDS011;14186;53.822;10.152;2024-02-26T10:35:21;16.15;;;7.72;;
26512;SDS011;14186;53.822;10.152;2024-02-26T10:40:25;17.40;;;8.18;;
26512;SDS011;14186;53.822;10.152;2024-02-26T10:45:26;18.38;;;7.25;;
26512;SDS011;14186;53.822;10.152;2024-02-26T10:50:26;18.25;;;7.55;;
26512;SDS011;14186;53.822;10.152;2024-02-26T10:55:27;19.73;;;8.07;;
26512;SDS011;14186;53.822;10.152;2024-02-26T11:00:28;17.10;;;6.70;;
26512;SDS011;14186;53.822;10.152;2024-02-26T11:05:28;19.15;;;7.35;;
26512;SDS011;14186;53.822;10.152;2024-02-26T11:10:30;18.40;;;7.40;;
26512;SDS011;14186;53.822;10.152;2024-02-26T11:15:31;15.27;;;6.70;;
26512;SDS011;14186;53.822;10.152;2024-02-26T11:20:32;16.33;;;6.78;;
26512;SDS011;14186;53.822;10.152;2024-02-26T11:25:35;14.80;;;6.53;;
26512;SDS011;14186;53.822;10.152;2024-02-26T11:30:36;17.48;;;8.18;;
26512;SDS011;14186;53.822;10.152;2024-02-26T11:35:37;18.80;;;7.00;;
26512;SDS011;14186;53.822;10.152;2024-02-26T11:40:39;21.58;;;7.95;;
26512;SDS011;14186;53.822;10.152;2024-02-26T11:45:49;21.85;;;8.45;;
26512;SDS011;14186;53.822;10.152;2024-02-26T11:50:50;16.13;;;6.32;;
26512;SDS011;14186;53.822;10.152;2024-02-26T12:06:26;18.42;;;8.10;;
26512;SDS011;14186;53.822;10.152;2024-02-26T12:11:27;19.35;;;8.38;;
26512;SDS011;14186;53.822;10.152;2024-02-26T12:16:36;19.55;;;7.80;;
26512;SDS011;14186;53.822;10.152;2024-02-26T12:21:38;19.25;;;7.90;;
26512;SDS011;14186;53.822;10.152;2024-02-26T12:26:39;21.02;;;8.23;;
26512;SDS011;14186;53.822;10.152;2024-02-26T12:31:39;19.63;;;7.78;;
26512;SDS011;14186;53.822;10.152;2024-02-26T12:36:41;18.42;;;7.57;;
26512;SDS011;14186;53.822;10.152;2024-02-26T12:41:41;18.70;;;8.93;;
26512;SDS011;14186;53.822;10.152;2024-02-26T12:46:42;18.70;;;8.00;;
26512;SDS011;14186;53.822;10.152;2024-02-26T12:51:43;18.20;;;8.32;;
26512;SDS011;14186;53.822;10.152;2024-02-26T12:56:44;18.73;;;8.90;;
26512;SDS011;14186;53.822;10.152;2024-02-26T13:01:44;15.52;;;7.60;;
26512;SDS011;14186;53.822;10.152;2024-02-26T13:06:46;15.55;;;7.85;;
26512;SDS011;14186;53.822;10.152;2024-02-26T13:11:47;20.83;;;9.52;;
26512;SDS011;14186;53.822;10.152;2024-02-26T13:16:55;33.38;;;15.10;;
26512;SDS011;14186;53.822;10.152;2024-02-26T13:21:57;19.98;;;9.25;;
26512;SDS011;14186;53.822;10.152;2024-02-26T13:27:03;26.23;;;9.93;;
26512;SDS011;14186;53.822;10.152;2024-02-26T13:32:03;20.70;;;8.10;;
26512;SDS011;14186;53.822;10.152;2024-02-26T13:37:05;18.67;;;9.05;;
26512;SDS011;14186;53.822;10.152;2024-02-26T13:42:05;18.98;;;8.55;;
26512;SDS011;14186;53.822;10.152;2024-02-26T13:47:06;16.48;;;7.80;;
26512;SDS011;14186;53.822;10.152;2024-02-26T13:52:07;17.02;;;8.65;;
26512;SDS011;14186;53.822;10.152;2024-02-26T13:57:07;18.30;;;7.60;;
26512;SDS011;14186;53.822;10.152;2024-02-26T14:02:08;15.73;;;7.57;;
26512;SDS011;14186;53.822;10.152;2024-02-26T14:07:09;20.13;;;8.20;;
26512;SDS011;14186;53.822;10.152;2024-02-26T14:12:10;16.17;;;6.95;;
26512;SDS011;14186;53.822;10.152;2024-02-26T14:17:11;13.68;;;6.28;;
26512;SDS011;14186;53.822;10.152;2024-02-26T14:22:12;17.33;;;7.35;;
26512;SDS011;14186;53.822;10.152;2024-02-26T14:27:13;16.13;;;7.00;;
26512;SDS011;14186;53.822;10.152;2024-02-26T14:32:13;13.15;;;6.45;;
26512;SDS011;14186;53.822;10.152;2024-02-26T14:37:15;11.30;;;4.93;;
26512;SDS011;14186;53.822;10.152;2024-02-26T14:42:15;17.00;;;6.88;;
26512;SDS011;14186;53.822;10.152;2024-02-26T14:47:15;10.05;;;5.18;;
26512;SDS011;14186;53.822;10.152;2024-02-26T14:52:17;10.90;;;5.00;;
26512;SDS011;14186;53.822;10.152;2024-02-26T14:57:17;13.02;;;5.43;;
26512;SDS011;14186;53.822;10.152;2024-02-26T15:02:17;11.90;;;6.20;;
26512;SDS011;14186;53.822;10.152;2024-02-26T15:07:19;11.02;;;5.60;;
26512;SDS011;14186;53.822;10.152;2024-02-26T15:12:19;12.73;;;5.35;;
26512;SDS011;14186;53.822;10.152;2024-02-26T15:17:19;13.77;;;6.50;;
26512;SDS011;14186;53.822;10.152;2024-02-26T15:22:21;11.65;;;5.40;;
26512;SDS011;14186;53.822;10.152;2024-02-26T15:27:21;12.95;;;5.97;;
26512;SDS011;14186;53.822;10.152;2024-02-26T15:32:21;13.43;;;6.47;;
26512;SDS011;14186;53.822;10.152;2024-02-26T15:37:23;14.23;;;5.93;;
26512;SDS011;14186;53.822;10.152;2024-02-26T15:42:23;14.20;;;6.50;;
26512;SDS011;14186;53.822;10.152;2024-02-26T15:47:23;17.15;;;6.38;;
26512;SDS011;14186;53.822;10.152;2024-02-26T15:52:26;15.05;;;6.72;;
26512;SDS011;14186;53.822;10.152;2024-02-26T15:57:26;13.48;;;6.63;;
26512;SDS011;14186;53.822;10.152;2024-02-26T16:02:26;14.73;;;7.05;;
26512;SDS011;14186;53.822;10.152;2024-02-26T16:07:29;17.92;;;7.70;;
26512;SDS011;14186;53.822;10.152;2024-02-26T16:12:34;14.52;;;7.25;;
26512;SDS011;14186;53.822;10.152;2024-02-26T16:17:36;14.60;;;6.80;;
26512;SDS011;14186;53.822;10.152;2024-02-26T16:22:39;16.70;;;6.93;;
26512;SDS011;14186;53.822;10.152;2024-02-26T16:27:39;15.18;;;6.75;;
26512;SDS011;14186;53.822;10.152;2024-02-26T16:32:40;13.82;;;6.68;;
26512;SDS011;14186;53.822;10.152;2024-02-26T16:37:43;13.93;;;6.80;;
26512;SDS011;14186;53.822;10.152;2024-02-26T16:42:43;15.88;;;6.60;;
26512;SDS011;14186;53.822;10.152;2024-02-26T16:47:44;12.93;;;6.13;;
26512;SDS011;14186;53.822;10.152;2024-02-26T16:52:45;16.05;;;7.85;;
26512;SDS011;14186;53.822;10.152;2024-02-26T16:57:45;15.85;;;7.43;;
26512;SDS011;14186;53.822;10.152;2024-02-26T17:02:46;15.73;;;7.82;;
26512;SDS011;14186;53.822;10.152;2024-02-26T17:07:47;14.77;;;6.45;;
26512;SDS011;14186;53.822;10.152;2024-02-26T17:12:47;13.75;;;6.32;;
26512;SDS011;14186;53.822;10.152;2024-02-26T17:17:48;16.95;;;7.55;;
26512;SDS011;14186;53.822;10.152;2024-02-26T17:22:49;15.07;;;7.05;;
26512;SDS011;14186;53.822;10.152;2024-02-26T17:27:49;16.40;;;7.97;;
26512;SDS011;14186;53.822;10.152;2024-02-26T17:32:50;15.07;;;6.68;;
26512;SDS011;14186;53.822;10.152;2024-02-26T17:37:51;22.08;;;10.52;;
26512;SDS011;14186;53.822;10.152;2024-02-26T17:42:52;18.13;;;9.55;;
26512;SDS011;14186;53.822;10.152;2024-02-26T17:47:52;16.15;;;7.13;;
26512;SDS011;14186;53.822;10.152;2024-02-26T17:52:53;19.70;;;8.27;;
26512;SDS011;14186;53.822;10.152;2024-02-26T17:57:54;17.48;;;7.70;;
26512;SDS011;14186;53.822;10.152;2024-02-26T18:02:54;21.58;;;10.68;;
26512;SDS011;14186;53.822;10.152;2024-02-26T18:07:56;24.60;;;10.52;;
26512;SDS011;14186;53.822;10.152;2024-02-26T18:12:57;28.92;;;11.60;;
26512;SDS011;14186;53.822;10.152;2024-02-26T18:17:57;20.40;;;8.15;;
26512;SDS011;14186;53.822;10.152;2024-02-26T18:22:58;18.30;;;7.35;;
26512;SDS011;14186;53.822;10.152;2024-02-26T18:27:59;14.60;;;7.05;;
26512;SDS011;14186;53.822;10.152;2024-02-26T18:32:59;20.38;;;7.38;;
26512;SDS011;14186;53.822;10.152;2024-02-26T18:38:01;17.45;;;7.22;;
26512;SDS011;14186;53.822;10.152;2024-02-26T18:43:01;16.95;;;7.10;;
26512;SDS011;14186;53.822;10.152;2024-02-26T18:48:01;17.83;;;7.80;;
26512;SDS011;14186;53.822;10.152;2024-02-26T18:53:03;19.60;;;8.05;;
26512;SDS011;14186;53.822;10.152;2024-02-26T18:58:03;18.30;;;6.97;;
26512;SDS011;14186;53.822;10.152;2024-02-26T19:03:04;24.50;;;9.45;;
26512;SDS011;14186;53.822;10.152;2024-02-26T19:08:05;22.92;;;9.05;;
26512;SDS011;14186;53.822;10.152;2024-02-26T19:13:05;22.42;;;8.38;;
26512;SDS011;14186;53.822;10.152;2024-02-26T19:18:06;24.42;;;8.57;;
26512;SDS011;14186;53.822;10.152;2024-02-26T19:23:07;24.30;;;9.00;;
26512;SDS011;14186;53.822;10.152;2024-02-26T19:28:07;22.05;;;8.85;;
26512;SDS011;14186;53.822;10.152;2024-02-26T19:33:08;26.38;;;9.13;;
26512;SDS011;14186;53.822;10.152;2024-02-26T19:38:09;23.83;;;10.32;;
26512;SDS011;14186;53.822;10.152;2024-02-26T19:43:09;29.27;;;12.70;;
26512;SDS011;14186;53.822;10.152;2024-02-26T19:48:10;27.75;;;9.70;;
26512;SDS011;14186;53.822;10.152;2024-02-26T19:53:11;25.52;;;9.60;;
26512;SDS011;14186;53.822;10.152;2024-02-26T19:58:11;27.38;;;8.65;;
26512;SDS011;14186;53.822;10.152;2024-02-26T20:03:12;31.33;;;10.20;;
26512;SDS011;14186;53.822;10.152;2024-02-26T20:08:13;29.58;;;9.52;;
26512;SDS011;14186;53.822;10.152;2024-02-26T20:13:13;28.13;;;8.35;;
26512;SDS011;14186;53.822;10.152;2024-02-26T20:18:14;27.27;;;9.18;;
26512;SDS011;14186;53.822;10.152;2024-02-26T20:23:15;30.83;;;10.07;;
26512;SDS011;14186;53.822;10.152;2024-02-26T20:28:15;33.13;;;9.93;;
26512;SDS011;14186;53.822;10.152;2024-02-26T20:33:16;31.33;;;9.40;;
26512;SDS011;14186;53.822;10.152;2024-02-26T20:38:17;23.70;;;9.43;;
26512;SDS011;14186;53.822;10.152;2024-02-26T20:43:18;32.42;;;10.80;;
26512;SDS011;14186;53.822;10.152;2024-02-26T20:48:18;39.53;;;10.82;;
26512;SDS011;14186;53.822;10.152;2024-02-26T20:53:19;37.40;;;11.82;;
26512;SDS011;14186;53.822;10.152;2024-02-26T20:58:20;32.30;;;11.02;;
26512;SDS011;14186;53.822;10.152;2024-02-26T21:03:20;28.77;;;10.32;;
26512;SDS011;14186;53.822;10.152;2024-02-26T21:08:21;31.13;;;9.65;;
26512;SDS011;14186;53.822;10.152;2024-02-26T21:13:22;28.30;;;10.07;;
26512;SDS011;14186;53.822;10.152;2024-02-26T21:18:22;23.05;;;8.82;;
26512;SDS011;14186;53.822;10.152;2024-02-26T21:23:25;34.25;;;10.77;;
26512;SDS011;14186;53.822;10.152;2024-02-26T21:28:25;24.55;;;9.52;;
26512;SDS011;14186;53.822;10.152;2024-02-26T21:33:25;29.90;;;10.50;;
26512;SDS011;14186;53.822;10.152;2024-02-26T21:38:26;32.95;;;11.15;;
26512;SDS011;14186;53.822;10.152;2024-02-26T21:43:27;27.75;;;10.98;;
26512;SDS011;14186;53.822;10.152;2024-02-26T21:48:27;32.33;;;10.43;;
26512;SDS011;14186;53.822;10.152;2024-02-26T21:53:28;34.30;;;11.13;;
26512;SDS011;14186;53.822;10.152;2024-02-26T21:58:29;24.33;;;9.35;;
26512;SDS011;14186;53.822;10.152;2024-02-26T22:03:29;29.73;;;10.43;;
26512;SDS011;14186;53.822;10.152;2024-02-26T22:08:30;29.77;;;11.15;;
26512;SDS011;14186;53.822;10.152;2024-02-26T22:13:31;31.42;;;11.30;;
26512;SDS011;14186;53.822;10.152;2024-02-26T22:18:31;31.33;;;11.52;;
26512;SDS011;14186;53.822;10.152;2024-02-26T22:23:32;39.08;;;12.00;;
26512;SDS011;14186;53.822;10.152;2024-02-26T22:28:33;31.35;;;11.27;;
26512;SDS011;14186;53.822;10.152;2024-02-26T22:33:33;28.92;;;11.57;;
26512;SDS011;14186;53.822;10.152;2024-02-26T22:38:34;29.65;;;11.13;;
26512;SDS011;14186;53.822;10.152;2024-02-26T22:43:34;32.88;;;11.35;;
26512;SDS011;14186;53.822;10.152;2024-02-26T22:48:35;34.03;;;11.95;;
26512;SDS011;14186;53.822;10.152;2024-02-26T22:53:36;28.92;;;11.82;;
26512;SDS011;14186;53.822;10.152;2024-02-26T22:58:36;31.98;;;11.25;;
26512;SDS011;14186;53.822;10.152;2024-02-26T23:03:37;32.20;;;11.13;;
26512;SDS011;14186;53.822;10.152;2024-02-26T23:08:38;30.33;;;11.75;;
26512;SDS011;14186;53.822;10.152;2024-02-26T23:13:38;28.40;;;11.30;;
26512;SDS011;14186;53.822;10.152;2024-02-26T23:18:39;35.75;;;13.60;;
26512;SDS011;14186;53.822;10.152;2024-02-26T23:23:40;36.67;;;12.10;;
26512;SDS011;14186;53.822;10.152;2024-02-26T23:28:40;34.95;;;12.63;;
26512;SDS011;14186;53.822;10.152;2024-02-26T23:33:40;34.13;;;11.43;;
26512;SDS011;14186;53.822;10.152;2024-02-26T23:38:42;30.70;;;10.52;;
26512;SDS011;14186;53.822;10.152;2024-02-26T23:43:42;38.70;;;12.10;;
26512;SDS011;14186;53.822;10.152;2024-02-26T23:48:42;26.90;;;11.35;;
26512;SDS011;14186;53.822;10.152;2024-02-26T23:53:44;30.95;;;10.38;;
26512;SDS011;14186;53.822;10.152;2024-02-26T23:58:44;28.73;;;10.55;;
